Home > Products > Valid Products > TAF

000
FTUS44 KMRX 251350 AAB
TAFTRI
TAF AMD
KTRI 251350Z 2514/2612 00000KT P6SM SCT003
      TEMPO 2514/2515 5SM BR
     FM251700 28003KT P6SM SKC
     FM252000 24006KT P6SM BKN060
     FM260200 25003KT P6SM BKN035
     FM260600 27003KT P6SM BKN015=



000
FTUS44 KMRX 251216 AAA
TAFTRI
TAF AMD
KTRI 251216Z 2512/2612 00000KT 2SM BR SCT001 OVC012
      TEMPO 2512/2514 1/4SM FG OVC001
     FM251500 28003KT P6SM SKC
     FM252000 24006KT P6SM BKN060
     FM260200 25003KT P6SM BKN035
     FM260600 27003KT P6SM BKN015=



000
FTUS44 KMRX 251120
TAFTRI
TAF
KTRI 251120Z 2512/2612 00000KT 6SM BR SCT002
     FM251300 28003KT P6SM SKC
     FM252000 24006KT P6SM BKN060
     FM260200 25003KT P6SM BKN035
     FM260600 27003KT P6SM BKN015=



000
FTUS44 KMRX 251120
TAFTYS
TAF
KTYS 251120Z 2512/2612 00000KT 6SM BR SKC
     FM251300 VRB03KT P6SM SKC
     FM252000 24005KT P6SM BKN050
     FM260600 27003KT P6SM BKN035=



000
FTUS44 KMRX 251120
TAFCHA
TAF
KCHA 251120Z 2512/2612 VRB03KT P6SM SKC
     FM252000 VRB03KT P6SM BKN050
     FM260600 00000KT 3SM BR SCT035=



000
FTUS44 KMRX 251120
TAFTRI
TAF
KTRI 251120Z 2512/2612 00000KT 6SM BR SCT002
     FM251300 28003KT P6SM SKC
     FM252000 24006KT P6SM BKN060
     FM260200 25003KT P6SM BKN035
     FM260600 27003KT P6SM BKN015=



000
FTUS44 KMRX 251120
TAFTYS
TAF
KTYS 251120Z 2512/2612 00000KT 6SM BR SKC
     FM251300 VRB03KT P6SM SKC
     FM252000 24005KT P6SM BKN050
     FM260600 27003KT P6SM BKN035=



000
FTUS44 KMRX 251120
TAFCHA
TAF
KCHA 251120Z 2512/2612 VRB03KT P6SM SKC
     FM252000 VRB03KT P6SM BKN050
     FM260600 00000KT 3SM BR SCT035=



000
FTUS44 KMRX 250520
TAFTYS
TAF
KTYS 250520Z 2506/2606 00000KT P6SM SKC
     FM251400 VRB03KT P6SM SKC
     FM252000 24005KT P6SM BKN050=



000
FTUS44 KMRX 250520
TAFTRI
TAF
KTRI 250520Z 2506/2606 VRB02KT P6SM SKC
     FM250900 00000KT 3SM BR SCT002
      TEMPO 2510/2512 1/2SM FG BKN002
     FM251400 28003KT P6SM SKC
     FM252000 24006KT P6SM BKN060=



000
FTUS44 KMRX 250520
TAFCHA
TAF
KCHA 250520Z 2506/2606 00000KT P6SM SKC
     FM251400 VRB03KT P6SM SKC
     FM252000 22004KT P6SM BKN050=



000
FTUS44 KMRX 242320
TAFTYS
TAF
KTYS 242320Z 2500/2524 05004KT P6SM SCT200
     FM250100 00000KT P6SM SCT250
     FM251400 04005KT P6SM SCT150 BKN250=



000
FTUS44 KMRX 242320
TAFTRI
TAF
KTRI 242320Z 2500/2524 VRB02KT P6SM SCT200
     FM250800 00000KT 4SM BR SCT002
      TEMPO 2508/2512 1/2SM FG BKN002
     FM251400 28003KT P6SM SCT150=



000
FTUS44 KMRX 242320
TAFCHA
TAF
KCHA 242320Z 2500/2524 01003KT P6SM SCT200
     FM250000 00000KT P6SM SCT250
     FM251300 01005KT P6SM SCT150 BKN250=



000
FTUS44 KMRX 241731
TAFTYS
TAF
KTYS 241731Z 2418/2518 05009KT P6SM SCT200
     FM250100 00000KT P6SM SCT250
     FM251400 04005KT P6SM SCT150 BKN250=



000
FTUS44 KMRX 241731
TAFCHA
TAF
KCHA 241731Z 2418/2518 01007KT P6SM SCT200
     FM250000 00000KT P6SM SCT250
     FM251300 01005KT P6SM SCT150 BKN250=



000
FTUS44 KMRX 241731
TAFTRI
TAF
KTRI 241731Z 2418/2518 VRB03KT P6SM SCT200
     FM250900 00000KT 4SM BR SCT002
     FM251400 28003KT P6SM SCT150=



000
FTUS44 KMRX 241405 AAD
TAFTRI
TAF AMD
KTRI 241405Z 2414/2512 VRB03KT P6SM FEW002 BKN150
      TEMPO 2414/2415 4SM BR
     FM241700 35004KT P6SM SKC
     FM250900 00000KT 3SM BR SCT002=



000
FTUS44 KMRX 241405 AAD
TAFTRI
TAF AMD
KTRI 241405Z 2414/2512 VRB03KT P6SM FEW002 BKN150
      TEMPO 2414/2415 4SM BR
     FM241700 35004KT P6SM SKC
     FM250900 00000KT 3SM BR SCT002=



000
FTUS44 KMRX 241307 AAC
TAFTRI
TAF AMD
KTRI 241307Z 2413/2512 VRB03KT 2SM BR SCT002 BKN012
      TEMPO 2413/2414 1/4SM FG OVC001
     FM241700 35004KT P6SM SKC
     FM250900 00000KT 3SM BR SCT002=



000
FTUS44 KMRX 241259 AAB
TAFTRI
TAF AMD
KTRI 241259Z 2413/2512 VRB03KT 3SM BR SCT002 BKN012
      TEMPO 2413/2414 1SM BR OVC002
     FM241700 35004KT P6SM SKC
     FM250900 00000KT 3SM BR SCT002=



000
FTUS44 KMRX 241204 AAA
TAFTRI
TAF AMD
KTRI 241204Z 2412/2512 VRB03KT P6SM SCT150 BKN250
      TEMPO 2412/2413 5SM BR
     FM241700 35004KT P6SM SKC
     FM250900 00000KT 3SM BR SCT002=



000
FTUS44 KMRX 241120
TAFCHA
TAF
KCHA 241120Z 2412/2512 36005KT P6SM BKN150
     FM241300 36007KT P6SM SKC
     FM250000 00000KT P6SM SKC=



000
FTUS44 KMRX 241120
TAFTYS
TAF
KTYS 241120Z 2412/2512 03005KT P6SM BKN150
     FM241400 01007KT P6SM SKC
     FM250100 00000KT P6SM SKC=



000
FTUS44 KMRX 241120
TAFTRI
TAF
KTRI 241120Z 2412/2512 00000KT 2SM BR SCT003 SCT250
      TEMPO 2412/2413 1/2SM FG BKN002
     FM241330 03003KT 3SM BR SCT006 BKN250
     FM241430 01004KT P6SM BKN150
     FM241700 35004KT P6SM SKC
     FM250900 00000KT 3SM BR SCT002=



000
FTUS44 KMRX 240520
TAFTRI
TAF
KTRI 240520Z 2406/2506 00000KT 6SM BR SCT250
     FM240730 00000KT 3SM BR SCT250
     FM241000 00000KT 1SM BR SCT003 SCT250
      TEMPO 2411/2413 1/2SM FG BKN003
     FM241330 03003KT 3SM BR SCT009 SCT250
     FM241500 30004KT P6SM BKN150
     FM250100 00000KT P6SM SCT150=



000
FTUS44 KMRX 240520
TAFTYS
TAF
KTYS 240520Z 2406/2506 01003KT P6SM BKN150
     FM241300 03005KT P6SM BKN100
     FM250100 00000KT P6SM SCT100=



000
FTUS44 KMRX 240520
TAFCHA
TAF
KCHA 240520Z 2406/2506 00000KT P6SM BKN150
     FM241200 03005KT P6SM BKN100
     FM250000 00000KT P6SM SCT100=



000
FTUS44 KMRX 232320
TAFTRI
TAF
KTRI 232320Z 2400/2424 00000KT P6SM BKN250
     FM241030 00000KT 3/4SM BR SCT006 SCT250
     FM241300 03003KT P6SM FEW015
     FM241600 30004KT P6SM SCT100 SCT250=



000
FTUS44 KMRX 232320
TAFCHA
TAF
KCHA 232320Z 2400/2424 01003KT P6SM BKN250
     FM241200 03005KT P6SM FEW100
     FM241800 35005KT P6SM SCT100 SCT250=



000
FTUS44 KMRX 232320
TAFTYS
TAF
KTYS 232320Z 2400/2424 04003KT P6SM BKN250
     FM241300 03005KT P6SM SCT250
     FM242100 34005KT P6SM SCT100 SCT250=



000
FTUS44 KMRX 231903 AAA
TAFTRI
TAF AMD
KTRI 231903Z 2319/2418 35005KT P6SM SCT035
     FM240000 00000KT P6SM SKC=



000
FTUS44 KMRX 231903 AAA
TAFTRI
TAF AMD
KTRI 231903Z 2319/2418 35005KT P6SM SCT035
     FM240000 00000KT P6SM SKC=



000
FTUS44 KMRX 231721
TAFTYS
TAF
KTYS 231721Z 2318/2418 04010KT P6SM FEW150
     FM240000 VRB03KT P6SM SKC=



000
FTUS44 KMRX 231721
TAFTRI
TAF
KTRI 231721Z 2318/2418 35005KT P6SM SCT030
      TEMPO 2318/2320 OVC028
     FM240000 00000KT P6SM SKC=



000
FTUS44 KMRX 231721
TAFCHA
TAF
KCHA 231721Z 2318/2418 35010KT P6SM SCT250
     FM240000 00000KT P6SM SKC
     FM241400 03005KT P6SM FEW100=



000
FTUS44 KMRX 231600 AAB
TAFCHA
TAF AMD
KCHA 231600Z 2316/2412 35010KT P6SM SCT250
     FM240000 00000KT P6SM SKC=



000
FTUS44 KMRX 231503 AAA
TAFTRI
TAF AMD
KTRI 231503Z 2315/2412 01006KT P6SM SCT028
      TEMPO 2315/2317 OVC028
     FM231800 29005KT P6SM SCT040
     FM240000 00000KT P6SM SKC=



000
FTUS44 KMRX 231502 AAB
TAFTYS
TAF AMD
KTYS 231502Z 2315/2412 07010G18KT P6SM FEW035
     FM231800 03008KT P6SM FEW250
     FM240000 00000KT P6SM SKC=



000
FTUS44 KMRX 231402 AAA
TAFTYS
TAF AMD
KTYS 231402Z 2314/2412 04011KT P6SM FEW030
     FM231600 03008KT P6SM FEW250
     FM240000 00000KT P6SM SKC=



000
FTUS44 KMRX 231401 AAA
TAFCHA
TAF AMD
KCHA 231401Z 2314/2412 02008G16KT P6SM SKC
     FM231800 02010KT P6SM SCT250
     FM240000 00000KT P6SM SKC=



000
FTUS44 KMRX 231120
TAFTYS
TAF
KTYS 231120Z 2312/2412 04005KT P6SM SKC
     FM231500 03006KT P6SM FEW250
     FM240000 00000KT P6SM SKC=



000
FTUS44 KMRX 231120
TAFCHA
TAF
KCHA 231120Z 2312/2412 01006KT P6SM SKC
     FM231500 02007KT P6SM SCT250
     FM240000 00000KT P6SM SKC=



000
FTUS44 KMRX 231120
TAFTRI
TAF
KTRI 231120Z 2312/2412 35004KT P6SM BKN025
     FM231500 29005KT P6SM SCT040
     FM240000 00000KT P6SM SKC=



000
FTUS44 KMRX 230528
TAFCHA
TAF
KCHA 230528Z 2306/2406 03004KT P6SM SKC
     FM231500 02007KT P6SM SCT250
     FM240100 VRB03KT P6SM SKC=



000
FTUS44 KMRX 230528
TAFTYS
TAF
KTYS 230528Z 2306/2406 03004KT P6SM SKC
     FM231500 03006KT P6SM FEW250
     FM240000 VRB03KT P6SM SKC=



000
FTUS44 KMRX 230528
TAFTRI
TAF
KTRI 230528Z 2306/2406 34003KT P6SM OVC025
     FM231200 VRB03KT P6SM SCT025
     FM231500 29005KT P6SM SKC=



000
FTUS44 KMRX 230524 AAA
TAFTRI
TAF AMD
KTRI 230524Z 2305/2324 34003KT P6SM OVC025
     FM231200 VRB03KT P6SM SCT025
     FM231500 29005KT P6SM SKC=



000
FTUS44 KMRX 222326
TAFCHA
TAF
KCHA 222326Z 2300/2324 03004KT P6SM SKC
     FM231500 02007KT P6SM SCT250=



000
FTUS44 KMRX 222326
TAFTRI
TAF
KTRI 222326Z 2300/2324 34003KT P6SM BKN035
     FM231200 VRB03KT P6SM SCT025
     FM231500 29005KT P6SM SKC=



000
FTUS44 KMRX 222326
TAFTYS
TAF
KTYS 222326Z 2300/2324 03004KT P6SM SKC
     FM231500 03006KT P6SM FEW250=



000
FTUS44 KMRX 221736
TAFTYS
TAF
KTYS 221736Z 2218/2318 03010G18KT P6SM SCT035
     FM230000 03004KT P6SM SKC
     FM231500 02006KT P6SM SKC=



000
FTUS44 KMRX 221736
TAFCHA
TAF
KCHA 221736Z 2218/2318 02010G18KT P6SM FEW040
     FM230000 02003KT P6SM SKC
     FM231500 02006KT P6SM SKC=



000
FTUS44 KMRX 221736
TAFTRI
TAF
KTRI 221736Z 2218/2318 35008KT P6SM BKN030
      TEMPO 2218/2222 OVC025
     FM222300 32003KT P6SM OVC025
     FM231200 00000KT P6SM SCT020
     FM231400 30004KT P6SM SKC=



000
FTUS44 KMRX 221736
TAFTYS
TAF
KTYS 221736Z 2218/2318 03010G18KT P6SM SCT035
     FM230000 03004KT P6SM SKC
     FM231500 02006KT P6SM SKC=



000
FTUS44 KMRX 221736
TAFCHA
TAF
KCHA 221736Z 2218/2318 02010G18KT P6SM FEW040
     FM230000 02003KT P6SM SKC
     FM231500 02006KT P6SM SKC=



000
FTUS44 KMRX 221736
TAFTRI
TAF
KTRI 221736Z 2218/2318 35008KT P6SM BKN030
      TEMPO 2218/2222 OVC025
     FM222300 32003KT P6SM OVC025
     FM231200 00000KT P6SM SCT020
     FM231400 30004KT P6SM SKC=



    US Dept of Commerce
    National Oceanic and Atmospheric Administration
    National Weather Service
    1325 East West Highway
    Silver Spring, MD 20910
    Page Author: NWS Internet Services Team
Disclaimer
Information Quality
Credits
Glossary
Privacy Policy
Freedom of Information Act (FOIA)
About Us
Career Opportunities